• Join FlightAware (Why Join?)
  • Login
  • US Flag 
Rudolph Flight #1: Arrived! 
07:44AM EST


 

Airport Tracker/Info


-or-


 

Live Flight TrackerFlight Track Log ✈ N589H ✈ 29-Mar-2014 ✈ CYXU - KCLT

Flight Track Log - Related Links

Times and Time Zones

All times are in EDT time to prevent confusion due to time zone crossing. See the N589H flight status page for this flight to view local times or setup timezone preferences in your user account.

Time Position Orientation Groundspeed Altitude Reporting Facility
EDT Latitude Longitude Course Direction KTS MPH feet Rate Location/Type
02:24PM 43.0000 -81.1167 144° Southeast 100 115 1,500  Level Toronto Center
02:25PM 42.9667 -81.0833 144° Southeast 180 207 3,600 2,100 Climbing Toronto Center
02:26PM 42.9000 -81.1167 200° South 200 230 5,700 2,220 Climbing Toronto Center
02:27PM 42.8500 -81.1167 180° South 200 230 8,100 2,220 Climbing Toronto Center
02:27PM 42.8322 -81.1217 192° South 202 232 9,400 2,160 Climbing Cleveland Center
02:28PM 42.7758 -81.1233 181° South 202 232 11,700 2,100 Climbing Cleveland Center
02:29PM 42.7203 -81.1244 181° South 200 230 13,800 2,160 Climbing Cleveland Center
02:30PM 42.6661 -81.1258 181° South 192 221 16,200 2,160 Climbing Cleveland Center
02:31PM 42.6153 -81.1292 183° South 183 211 18,300 1,680 Climbing Cleveland Center
02:32PM 42.5628 -81.1286 180° South 183 211 19,700 1,260 Climbing Cleveland Center
02:33PM 42.5072 -81.1336 184° South 193 222 20,900 1,320 Climbing Cleveland Center
02:34PM 42.4486 -81.1339 180° South 204 235 22,400 1,740 Climbing Cleveland Center
02:35PM 42.3903 -81.1356 181° South 208 239 24,500 1,740 Climbing Cleveland Center
02:36PM 42.3311 -81.1364 181° South 208 239 26,000 1,500 Climbing Cleveland Center
02:37PM 42.2711 -81.1336 178° South 210 242 27,600 1,440 Climbing Cleveland Center
02:38PM 42.2100 -81.1331 180° South 216 249 29,000 1,320 Climbing Cleveland Center
02:39PM 42.1386 -81.1311 179° South 216 249 30,400 1,200 Climbing Cleveland Center
02:40PM 42.0747 -81.1283 178° South 221 254 31,500 780 Climbing Cleveland Center
02:41PM 42.0100 -81.1269 179° South 226 260 32,000 240 Climbing Cleveland Center
02:42PM 41.9367 -81.1250 179° South 254 292 32,000  Level Cleveland Center
02:44PM 41.8569 -81.1231 179° South 278 320 32,000  Level Cleveland Center
02:45PM 41.7731 -81.1211 179° South 294 338 32,000  Level Cleveland Center
02:46PM 41.6878 -81.1178 178° South 300 345 32,000  Level Cleveland Center
02:47PM 41.6014 -81.1139 178° South 304 350 32,000  Level Cleveland Center
02:48PM 41.5150 -81.1122 179° South 304 350 32,000  Level Cleveland Center
02:49PM 41.4297 -81.1092 178° South 304 350 32,000  Level Cleveland Center
02:50PM 41.3436 -81.1064 179° South 304 350 32,000  Level Cleveland Center
02:51PM 41.2578 -81.1047 179° South 304 350 32,000  Level Cleveland Center
02:52PM 41.1722 -81.1022 179° South 304 350 32,000  Level Cleveland Center
02:53PM 41.0867 -81.0983 178° South 304 350 32,000  Level Cleveland Center
02:54PM 41.0011 -81.0961 179° South 304 350 32,000  Level Cleveland Center
02:55PM 40.8994 -81.0936 179° South 304 350 32,000  Level Cleveland Center
02:56PM 40.8117 -81.0936 180° South 307 353 32,000  Level Cleveland Center
02:57PM 40.7250 -81.0908 179° South 308 354 32,000  Level Cleveland Center
02:58PM 40.6383 -81.0875 178° South 309 356 32,000  Level Cleveland Center
02:59PM 40.5519 -81.0850 179° South 309 356 32,000  Level Cleveland Center
03:00PM 40.4656 -81.0822 179° South 310 357 32,000  Level Cleveland Center
03:01PM 40.3803 -81.0794 179° South 310 357 32,000  Level Cleveland Center
03:02PM 40.2947 -81.0775 179° South 310 357 32,000  Level Cleveland Center
03:03PM 40.1922 -81.0753 179° South 309 356 32,000  Level Cleveland Center
03:04PM 40.1081 -81.0736 179° South 308 354 32,000  Level Cleveland Center
03:05PM 40.0300 -81.0722 179° South 308 354 32,000  Level Indianapolis Center
03:06PM 39.9492 -81.0694 178° South 307 353 32,000  Level Indianapolis Center
03:07PM 39.8644 -81.0675 179° South 307 353 32,000  Level Indianapolis Center
03:08PM 39.7800 -81.0661 179° South 306 352 32,000  Level Indianapolis Center
03:09PM 39.6964 -81.0639 179° South 304 350 32,000  Level Indianapolis Center
03:10PM 39.6119 -81.0614 179° South 304 350 32,000  Level Indianapolis Center
03:11PM 39.5275 -81.0594 179° South 303 349 32,000  Level Indianapolis Center
03:12PM 39.4264 -81.0567 179° South 303 349 32,000  Level Indianapolis Center
03:13PM 39.3411 -81.0525 178° South 303 349 32,000  Level Indianapolis Center
03:14PM 39.2561 -81.0511 179° South 303 349 32,000  Level Indianapolis Center
03:15PM 39.1708 -81.0486 179° South 303 349 32,000  Level Indianapolis Center
03:16PM 39.0847 -81.0458 179° South 304 350 32,000  Level Indianapolis Center
03:17PM 38.9992 -81.0433 179° South 304 350 32,000  Level Indianapolis Center
03:18PM 38.9133 -81.0411 179° South 305 351 32,000  Level Indianapolis Center
03:19PM 38.8272 -81.0392 179° South 305 351 32,000  Level Indianapolis Center
03:20PM 38.7406 -81.0364 179° South 305 351 32,000  Level Indianapolis Center
03:21PM 38.6369 -81.0336 179° South 306 352 32,000  Level Indianapolis Center
03:22PM 38.5511 -81.0317 179° South 306 352 32,000  Level Indianapolis Center
03:23PM 38.4653 -81.0297 179° South 306 352 32,000  Level Indianapolis Center
03:24PM 38.3800 -81.0269 179° South 306 352 32,000  Level Indianapolis Center
03:25PM 38.2933 -81.0233 178° South 306 352 32,000  Level Indianapolis Center
03:26PM 38.2072 -81.0219 179° South 306 352 32,000  Level Indianapolis Center
03:28PM 38.1197 -81.0189 178° South 308 354 32,000  Level Indianapolis Center
03:29PM 38.0322 -81.0181 180° South 311 358 32,000  Level Indianapolis Center
03:30PM 37.9428 -81.0158 179° South 313 360 32,000  Level Indianapolis Center
03:31PM 37.8542 -81.0122 178° South 315 362 32,000  Level Indianapolis Center
03:32PM 37.7475 -81.0097 179° South 320 368 32,000  Level Indianapolis Center
03:33PM 37.6597 -81.0083 179° South 321 369 32,000  Level Indianapolis Center
03:34PM 37.5717 -81.0058 179° South 323 372 32,000  Level Indianapolis Center
03:35PM 37.4642 -81.0033 179° South 326 375 32,000  Level Indianapolis Center
03:36PM 37.3753 -81.0006 179° South 328 377 32,000  Level Indianapolis Center
03:37PM 37.2872 -80.9986 179° South 328 377 32,000  Level Indianapolis Center
03:38PM 37.2011 -80.9967 179° South 326 375 32,000 -420 Level Indianapolis Center
03:39PM 37.0925 -80.9942 179° South 327 376 31,200 -900 Descending Indianapolis Center
03:40PM 37.0011 -80.9917 179° South 335 386 30,200 -1,080 Descending Indianapolis Center
03:41PM 36.9108 -80.9889 179° South 335 386 29,100 -1,200 Descending Indianapolis Center
03:42PM 36.7942 -80.9878 180° South 334 384 27,700 -1,200 Descending Atlanta Center
03:43PM 36.7128 -80.9858 179° South 326 375 26,600 -1,200 Descending Atlanta Center
03:44PM 36.6250 -80.9839 179° South 326 375 25,400 -1,200 Descending Atlanta Center
03:45PM 36.5394 -80.9794 178° South 326 375 24,300 -1,200 Descending Atlanta Center
03:46PM 36.4497 -80.9778 179° South 326 375 23,100 -1,200 Descending Atlanta Center
03:47PM 36.3622 -80.9758 179° South 326 375 22,000 -1,200 Descending Atlanta Center
03:48PM 36.2767 -80.9739 179° South 321 369 20,800 -1,200 Descending Atlanta Center
03:49PM 36.1869 -80.9722 179° South 321 369 19,600 -1,200 Descending Atlanta Center
03:50PM 36.1014 -80.9703 179° South 321 369 18,500 -1,200 Descending Atlanta Center
03:51PM 36.0136 -80.9686 179° South 321 369 17,200 -1,140 Descending Atlanta Center
03:52PM 35.9258 -80.9667 179° South 308 354 16,300 -1,020 Descending Atlanta Center
03:52PM 35.9136 -80.9697 191° South 290 334 16,100 -1,200 Descending Atlanta Center
03:53PM 35.8444 -80.9647 177° South 289 333 15,100 -1,140 Descending Atlanta Center
03:54PM 35.7633 -80.9653 180° South 296 341 14,000 -1,320 Descending Atlanta Center
03:54PM 35.7547 -80.9631 168° South 290 334 13,800 -1,500 Descending Atlanta Center
03:55PM 35.6903 -80.9653 182° South 285 328 12,500 -1,500 Descending Atlanta Center
03:55PM 35.6839 -80.9681 199° South 254 292 12,300 -2,040 Descending Atlanta Center
03:56PM 35.6236 -80.9731 184° South 257 296 10,500 -1,980 Descending Atlanta Center
03:56PM 35.6214 -80.9706 138° Southeast 222 255 10,300 -2,400 Descending Atlanta Center
03:57PM 35.5631 -80.9650 176° South 239 275 8,100 -2,520 Descending Atlanta Center
03:57PM 35.5589 -80.9653 183° South 215 247 7,800 -2,760 Descending Atlanta Center
03:58PM 35.5067 -80.9672 182° South 202 232 5,400 -2,040 Descending Atlanta Center
03:59PM 35.4522 -80.9589 173° South 209 241 3,900 -1,380 Descending Atlanta Center
03:59PM 35.4481 -80.9592 183° South 197 227 3,900  Level Atlanta Center
04:00PM 35.4019 -80.9558 177° South 198 228 3,900  Level Atlanta Center
04:00PM 35.3978 -80.9533 154° Southeast 177 204 3,900 -720 Level Atlanta Center
04:01PM 35.3519 -80.9500 177° South 187 215 3,200 -780 Descending Atlanta Center
04:01PM 35.3539 -80.9500 360° North 177 204 3,200 -840 Level Atlanta Center
04:02PM 35.3058 -80.9467 177° South 182 209 2,400 -780 Descending Atlanta Center
04:03PM 35.2703 -80.9428 175° South 108 124 1,700 -660 Descending Atlanta Center
04:04PM 35.2328 -80.9392 176° South 125 144 1,000 -660 Descending Atlanta Center
04:06PM 35.2137 -80.9491 180° South  Level Estimated
04:13PM 35.2137 -80.9491 180° South  Level Estimated